KLIT/LIT METAR and TAF weather

Enter ICAO airport designator
Station Type Date Time Source
KLIT METAR 2020/08/15 16:53 UTC NOAA

KLIT 151653Z 36003KT 10SM FEW043 SCT250 33/21 A2999 RMK AO2 SLP153 T03330211


Station Type Date Time Source
KLIT Decoded METAR 2020/08/15 16:53 UTC NOAA

LITTLE ROCK ADAMS FIELD, AR, United States (KLIT) 34-44N 92-14W 79M
Aug 15, 2020 - 12:53 PM EDT / 2020.08.15 1653 UTC
Wind: from the N (360 degrees) at 3 MPH (3 KT):0
Visibility: 10 mile(s):0
Sky conditions: partly cloudy
Temperature: 91.9 F (33.3 C)
Heat index: 97.3 F (36.3 C):1
Dew Point: 70.0 F (21.1 C)
Relative Humidity: 48%
Pressure (altimeter): 29.99 in. Hg (1015 hPa)
ob: KLIT 151653Z 36003KT 10SM FEW043 SCT250 33/21 A2999 RMK AO2 SLP153 T03330211
cycle: 17

Station Type Date Time Source
KLIT TAF 2020/08/15 12:42 UTC NOAA

TAF KLIT 151139Z 1512/1612 24005KT P6SM SCT250
FM151600 09006KT P6SM SCT050
FM160000 14003KT P6SM SCT250

Example: see airport list